Time;durP1;ratioP1;P1;durP2;ratioP2;P2;SDS_P1;SDS_P2;PMS_P1;PMS_P2;Temp;Humidity;BMP_temperature;BMP_pressure;BME280_temperature;BME280_humidity;BME280_pressure;Samples;Min_cycle;Max_cycle;Signal;HPM_P1;HPM_P2
2021/07/12 00:02:18;;;;;;;46.97;21.77;;;;;;;;;;755190;184;920458;-73
2021/07/12 00:04:43;;;;;;;51.43;23.10;;;;;;;;;;750030;184;919045;-73
2021/07/12 00:07:09;;;;;;;37.50;21.65;;;;;;;;;;755472;183;919047;-73
2021/07/12 00:09:35;;;;;;;53.13;20.70;;;;;;;;;;751566;183;918858;-74
2021/07/12 00:12:01;;;;;;;36.70;19.50;;;;;;;;;;749597;184;919093;-73
2021/07/12 00:14:27;;;;;;;40.13;22.33;;;;;;;;;;755446;184;918696;-73
2021/07/12 00:16:53;;;;;;;37.40;21.53;;;;;;;;;;751275;184;924577;-74
2021/07/12 00:19:18;;;;;;;35.40;22.20;;;;;;;;;;748413;184;919133;-75
2021/07/12 00:21:46;;;;;;;31.07;20.90;;;;;;;;;;755481;184;919212;-74
2021/07/12 00:24:10;;;;;;;37.90;20.70;;;;;;;;;;754505;184;918695;-73
2021/07/12 00:26:36;;;;;;;36.23;21.13;;;;;;;;;;756397;184;918928;-74
2021/07/12 00:29:02;;;;;;;38.70;21.50;;;;;;;;;;754474;183;918631;-74
2021/07/12 00:31:28;;;;;;;35.70;20.33;;;;;;;;;;748725;184;918651;-74
2021/07/12 00:33:53;;;;;;;37.80;22.30;;;;;;;;;;747073;184;1021106;-74
2021/07/12 00:36:19;;;;;;;36.10;21.50;;;;;;;;;;749405;184;918965;-73
2021/07/12 00:38:45;;;;;;;34.85;20.67;;;;;;;;;;757031;184;918674;-75
2021/07/12 00:41:11;;;;;;;35.93;20.63;;;;;;;;;;751339;184;918419;-75
2021/07/12 00:43:37;;;;;;;31.95;21.05;;;;;;;;;;748414;184;919095;-73
2021/07/12 00:46:03;;;;;;;36.40;21.70;;;;;;;;;;754264;184;919747;-74
2021/07/12 00:48:33;;;;;;;32.50;18.70;;;;;;;;;;750719;184;919183;-74
2021/07/12 00:50:54;;;;;;;38.47;20.80;;;;;;;;;;753472;184;919052;-74
2021/07/12 00:53:20;;;;;;;50.03;22.50;;;;;;;;;;753240;184;919239;-71
2021/07/12 00:55:46;;;;;;;53.40;20.42;;;;;;;;;;749421;184;919107;-75
2021/07/12 00:58:12;;;;;;;43.27;22.80;;;;;;;;;;751436;183;920047;-74
2021/07/12 01:00:38;;;;;;;47.47;22.30;;;;;;;;;;754861;182;918835;-74
2021/07/12 01:03:04;;;;;;;39.83;20.80;;;;;;;;;;763246;180;918173;-73
2021/07/12 01:05:31;;;;;;;49.90;29.00;;;;;;;;;;752130;184;918663;-74
2021/07/12 01:07:55;;;;;;;58.03;27.83;;;;;;;;;;748856;184;919842;-75
2021/07/12 01:10:22;;;;;;;58.47;34.97;;;;;;;;;;758305;183;919605;-75
2021/07/12 01:13:06;;;;;;;62.57;33.97;;;;;;;;;;751900;184;919631;-74
2021/07/12 01:15:33;;;;;;;76.50;40.37;;;;;;;;;;744312;184;1128181;-74
2021/07/12 01:18:03;;;;;;;83.80;45.77;;;;;;;;;;748287;184;923463;-75
2021/07/12 01:20:57;;;;;;;72.50;41.40;;;;;;;;;;749247;184;919110;-74
2021/07/12 01:23:16;;;;;;;60.20;38.13;;;;;;;;;;740594;185;918695;-75
2021/07/12 01:25:43;;;;;;;67.18;36.35;;;;;;;;;;758164;184;918181;-74
2021/07/12 01:28:15;;;;;;;50.40;30.67;;;;;;;;;;749181;184;914803;-76
2021/07/12 01:30:56;;;;;;;53.00;28.93;;;;;;;;;;752372;184;1021903;-75
2021/07/12 01:33:22;;;;;;;39.13;24.43;;;;;;;;;;748713;184;919284;-74
2021/07/12 01:35:48;;;;;;;27.90;19.97;;;;;;;;;;751825;184;918960;-71
2021/07/12 01:38:15;;;;;;;35.10;20.97;;;;;;;;;;752178;183;920017;-72
2021/07/12 01:40:41;;;;;;;35.45;21.95;;;;;;;;;;749209;184;918641;-72
2021/07/12 01:43:07;;;;;;;38.67;23.67;;;;;;;;;;749551;184;919489;-73
2021/07/12 01:45:33;;;;;;;28.53;21.90;;;;;;;;;;753736;184;919061;-74
2021/07/12 01:48:02;;;;;;;29.00;21.13;;;;;;;;;;756024;184;919464;-74
2021/07/12 01:50:27;;;;;;;34.30;22.43;;;;;;;;;;749106;184;975834;-72
2021/07/12 01:52:55;;;;;;;31.97;22.30;;;;;;;;;;755676;184;864028;-70
2021/07/12 01:55:21;;;;;;;47.10;27.10;;;;;;;;;;752232;184;918443;-70
2021/07/12 01:57:48;;;;;;;40.13;27.97;;;;;;;;;;749819;184;917760;-72
2021/07/12 02:00:14;;;;;;;43.43;28.87;;;;;;;;;;747769;184;920652;-72
2021/07/12 02:02:40;;;;;;;42.63;27.90;;;;;;;;;;756850;184;912753;-73
2021/07/12 02:05:06;;;;;;;38.60;25.30;;;;;;;;;;752349;184;917105;-74
2021/07/12 02:07:32;;;;;;;42.80;25.43;;;;;;;;;;752793;184;915865;-72
2021/07/12 02:09:58;;;;;;;40.80;25.40;;;;;;;;;;753448;184;916918;-72
2021/07/12 02:12:24;;;;;;;56.50;23.57;;;;;;;;;;757573;182;918950;-71
2021/07/12 02:14:49;;;;;;;26.27;20.03;;;;;;;;;;751891;184;915609;-71
2021/07/12 02:17:16;;;;;;;31.65;19.00;;;;;;;;;;755173;183;935179;-69
2021/07/12 02:19:42;;;;;;;31.70;18.80;;;;;;;;;;761826;181;919173;-70
2021/07/12 02:22:07;;;;;;;24.75;18.00;;;;;;;;;;749656;184;920588;-69
2021/07/12 02:24:33;;;;;;;32.43;18.47;;;;;;;;;;748907;184;918802;-69
2021/07/12 02:26:59;;;;;;;27.90;18.27;;;;;;;;;;762270;184;919286;-70
2021/07/12 02:29:25;;;;;;;21.93;18.27;;;;;;;;;;753266;184;919253;-69
2021/07/12 02:31:51;;;;;;;26.90;19.63;;;;;;;;;;752585;184;919594;-70
2021/07/12 02:34:17;;;;;;;27.58;20.70;;;;;;;;;;756415;184;919592;-69
2021/07/12 02:36:42;;;;;;;27.27;18.80;;;;;;;;;;740933;187;919282;-70
2021/07/12 02:39:08;;;;;;;34.83;21.43;;;;;;;;;;748394;184;921138;-69
2021/07/12 02:41:34;;;;;;;30.33;19.97;;;;;;;;;;755390;184;919304;-69
2021/07/12 02:44:00;;;;;;;31.83;21.97;;;;;;;;;;750120;184;920416;-68
2021/07/12 02:46:26;;;;;;;34.17;22.00;;;;;;;;;;754111;184;629231;-69
2021/07/12 02:48:52;;;;;;;29.03;22.17;;;;;;;;;;750699;183;918091;-68
2021/07/12 02:51:18;;;;;;;29.63;21.70;;;;;;;;;;760004;183;919869;-68
2021/07/12 02:53:46;;;;;;;30.03;21.60;;;;;;;;;;751397;184;1022867;-68
2021/07/12 02:56:11;;;;;;;31.47;23.70;;;;;;;;;;755505;184;918721;-69
2021/07/12 02:58:37;;;;;;;34.13;23.13;;;;;;;;;;755708;184;916748;-69
2021/07/12 03:01:03;;;;;;;35.43;22.27;;;;;;;;;;750225;184;916531;-70
2021/07/12 03:03:29;;;;;;;29.00;21.83;;;;;;;;;;746821;183;918752;-68
2021/07/12 03:05:54;;;;;;;30.60;23.60;;;;;;;;;;756744;184;910291;-68
2021/07/12 03:08:20;;;;;;;29.00;23.80;;;;;;;;;;747418;184;916242;-67
2021/07/12 03:10:49;;;;;;;29.50;22.63;;;;;;;;;;748498;183;919724;-67
2021/07/12 03:13:15;;;;;;;32.10;25.13;;;;;;;;;;748282;184;921308;-68
2021/07/12 03:15:42;;;;;;;34.70;24.83;;;;;;;;;;755425;184;920361;-66
2021/07/12 03:18:08;;;;;;;37.90;24.67;;;;;;;;;;751779;184;919318;-66
2021/07/12 03:20:34;;;;;;;35.20;24.70;;;;;;;;;;749570;184;918412;-65
2021/07/12 03:23:00;;;;;;;29.90;22.93;;;;;;;;;;758330;183;919445;-65
2021/07/12 03:25:26;;;;;;;32.97;23.47;;;;;;;;;;750818;183;919165;-65
2021/07/12 03:27:52;;;;;;;42.97;27.23;;;;;;;;;;748924;184;922168;-66
2021/07/12 03:30:18;;;;;;;26.98;23.25;;;;;;;;;;755468;184;919524;-64
2021/07/12 03:32:44;;;;;;;38.43;25.90;;;;;;;;;;759923;183;920808;-65
2021/07/12 03:35:10;;;;;;;36.37;24.83;;;;;;;;;;751889;183;922955;-66
2021/07/12 03:37:36;;;;;;;31.10;23.67;;;;;;;;;;750344;184;915367;-64
2021/07/12 03:40:02;;;;;;;31.47;22.53;;;;;;;;;;755530;184;924602;-65
2021/07/12 03:42:28;;;;;;;29.97;24.33;;;;;;;;;;753056;184;919692;-65
2021/07/12 03:44:54;;;;;;;30.53;24.77;;;;;;;;;;751030;184;925727;-65
2021/07/12 03:47:23;;;;;;;35.40;25.77;;;;;;;;;;756497;184;920085;-65
2021/07/12 03:49:49;;;;;;;35.93;23.87;;;;;;;;;;750311;184;919090;-67
2021/07/12 03:52:14;;;;;;;34.10;24.58;;;;;;;;;;753042;184;902802;-65
2021/07/12 03:54:40;;;;;;;29.43;24.23;;;;;;;;;;751246;184;923875;-65
2021/07/12 03:57:06;;;;;;;30.00;24.80;;;;;;;;;;761446;183;627655;-67
2021/07/12 03:59:32;;;;;;;31.90;25.20;;;;;;;;;;755409;183;620213;-67
2021/07/12 04:01:58;;;;;;;31.20;23.65;;;;;;;;;;751668;183;921898;-65
2021/07/12 04:04:24;;;;;;;29.63;21.27;;;;;;;;;;756371;184;958304;-67
2021/07/12 04:06:49;;;;;;;35.20;25.13;;;;;;;;;;751831;183;920372;-65
2021/07/12 04:09:15;;;;;;;27.50;22.93;;;;;;;;;;749104;184;920469;-65
2021/07/12 04:11:41;;;;;;;29.63;24.43;;;;;;;;;;755462;184;913426;-68
2021/07/12 04:14:07;;;;;;;30.27;23.42;;;;;;;;;;752020;184;912822;-67
2021/07/12 04:16:33;;;;;;;33.30;23.63;;;;;;;;;;752882;183;915061;-67
2021/07/12 04:18:59;;;;;;;34.22;22.50;;;;;;;;;;755063;184;1017126;-66
2021/07/12 04:21:25;;;;;;;34.60;25.43;;;;;;;;;;750422;184;913980;-66
2021/07/12 04:23:50;;;;;;;34.95;23.90;;;;;;;;;;753577;183;918721;-66
2021/07/12 04:26:16;;;;;;;27.30;22.00;;;;;;;;;;752931;184;914965;-67
2021/07/12 04:28:42;;;;;;;26.53;21.67;;;;;;;;;;752379;184;912687;-69
2021/07/12 04:31:08;;;;;;;33.53;22.43;;;;;;;;;;750639;184;914657;-70
2021/07/12 04:33:34;;;;;;;25.37;20.87;;;;;;;;;;750538;183;919892;-70
2021/07/12 04:36:00;;;;;;;28.20;23.40;;;;;;;;;;757020;183;920397;-69
2021/07/12 04:38:25;;;;;;;27.23;22.00;;;;;;;;;;754662;184;963644;-68
2021/07/12 04:40:51;;;;;;;29.85;21.83;;;;;;;;;;753086;184;915621;-67
2021/07/12 04:43:17;;;;;;;26.70;21.63;;;;;;;;;;755262;184;916114;-68
2021/07/12 04:45:43;;;;;;;26.80;21.20;;;;;;;;;;751431;183;917853;-70
2021/07/12 04:48:09;;;;;;;26.43;21.40;;;;;;;;;;749360;184;915875;-69
2021/07/12 04:50:35;;;;;;;21.10;17.90;;;;;;;;;;751127;184;915791;-68
2021/07/12 04:53:00;;;;;;;30.00;19.17;;;;;;;;;;760838;180;918534;-68
2021/07/12 04:55:26;;;;;;;25.90;18.07;;;;;;;;;;750384;184;916226;-69
2021/07/12 04:57:53;;;;;;;20.60;17.17;;;;;;;;;;747538;186;916659;-68
2021/07/12 05:00:18;;;;;;;20.30;16.70;;;;;;;;;;749368;186;919336;-69
2021/07/12 05:02:44;;;;;;;29.30;17.93;;;;;;;;;;732428;190;915826;-69
2021/07/12 05:05:11;;;;;;;26.63;19.40;;;;;;;;;;750453;184;1021611;-70
2021/07/12 05:07:39;;;;;;;25.57;19.80;;;;;;;;;;755864;184;919634;-70
2021/07/12 05:10:03;;;;;;;26.70;20.93;;;;;;;;;;751919;184;919545;-70
2021/07/12 05:12:28;;;;;;;27.97;20.20;;;;;;;;;;749168;184;919395;-70
2021/07/12 05:14:54;;;;;;;28.85;22.25;;;;;;;;;;758215;183;919130;-68
2021/07/12 05:17:20;;;;;;;32.60;24.67;;;;;;;;;;754108;183;918799;-69
2021/07/12 05:19:46;;;;;;;33.60;25.37;;;;;;;;;;752771;184;918935;-69
2021/07/12 05:22:12;;;;;;;30.77;24.57;;;;;;;;;;752214;184;971847;-70
2021/07/12 05:24:38;;;;;;;35.20;24.43;;;;;;;;;;759849;184;918734;-71
2021/07/12 05:27:04;;;;;;;38.13;26.10;;;;;;;;;;750921;184;919094;-69
2021/07/12 05:29:30;;;;;;;37.35;26.70;;;;;;;;;;750509;184;919890;-69
2021/07/12 05:31:56;;;;;;;40.93;27.20;;;;;;;;;;759103;184;918778;-69
2021/07/12 05:34:21;;;;;;;39.87;27.37;;;;;;;;;;751999;184;917910;-70
2021/07/12 05:36:47;;;;;;;36.42;27.40;;;;;;;;;;750821;184;919245;-70
2021/07/12 05:39:13;;;;;;;35.30;25.10;;;;;;;;;;755724;184;1021433;-71
2021/07/12 05:41:39;;;;;;;36.10;27.87;;;;;;;;;;746972;184;919432;-69
2021/07/12 05:44:05;;;;;;;39.27;27.80;;;;;;;;;;752544;184;921971;-70
2021/07/12 05:46:31;;;;;;;36.70;26.90;;;;;;;;;;754438;182;1017963;-68
2021/07/12 05:48:56;;;;;;;39.30;27.10;;;;;;;;;;758948;183;919408;-70
2021/07/12 05:51:22;;;;;;;34.27;25.23;;;;;;;;;;753193;183;919131;-70
2021/07/12 05:53:48;;;;;;;39.40;27.00;;;;;;;;;;750228;184;918888;-69
2021/07/12 05:56:14;;;;;;;37.80;27.27;;;;;;;;;;758371;184;915104;-69
2021/07/12 05:58:40;;;;;;;47.70;30.47;;;;;;;;;;752636;184;919080;-69
2021/07/12 06:01:06;;;;;;;38.92;27.23;;;;;;;;;;751762;183;920171;-70
2021/07/12 06:03:32;;;;;;;43.67;31.50;;;;;;;;;;756022;183;913877;-70
2021/07/12 06:05:57;;;;;;;54.27;30.20;;;;;;;;;;750485;183;919765;-69
2021/07/12 06:08:23;;;;;;;38.70;27.30;;;;;;;;;;750231;184;919112;-70
2021/07/12 06:10:49;;;;;;;28.47;22.70;;;;;;;;;;750779;184;919537;-68
2021/07/12 06:13:15;;;;;;;32.10;23.20;;;;;;;;;;757482;183;918712;-70
2021/07/12 06:15:41;;;;;;;32.43;23.47;;;;;;;;;;750018;183;938897;-70
2021/07/12 06:18:12;;;;;;;33.00;23.40;;;;;;;;;;750494;184;918915;-71
2021/07/12 06:20:37;;;;;;;26.13;20.83;;;;;;;;;;755676;184;919136;-70
2021/07/12 06:23:03;;;;;;;29.03;21.13;;;;;;;;;;750976;184;919641;-70
2021/07/12 06:25:29;;;;;;;25.87;19.30;;;;;;;;;;747394;184;919048;-70
2021/07/12 06:27:55;;;;;;;29.17;21.30;;;;;;;;;;753873;184;919690;-70
2021/07/12 06:30:21;;;;;;;26.53;20.07;;;;;;;;;;752566;184;1020687;-70
2021/07/12 06:32:46;;;;;;;28.37;23.87;;;;;;;;;;752017;184;919142;-70
2021/07/12 06:35:13;;;;;;;30.70;22.27;;;;;;;;;;748490;184;1020112;-70
2021/07/12 06:37:39;;;;;;;26.40;21.77;;;;;;;;;;754460;184;919634;-71
2021/07/12 06:40:05;;;;;;;26.40;20.37;;;;;;;;;;749111;184;1020439;-69
2021/07/12 06:42:31;;;;;;;26.93;19.67;;;;;;;;;;749666;184;919218;-70
2021/07/12 06:44:58;;;;;;;24.93;20.27;;;;;;;;;;754100;184;919149;-70
2021/07/12 06:47:25;;;;;;;22.57;17.33;;;;;;;;;;752053;184;919378;-70
2021/07/12 06:49:51;;;;;;;21.37;16.90;;;;;;;;;;752254;186;919676;-70
2021/07/12 06:52:16;;;;;;;20.17;16.50;;;;;;;;;;756069;184;918755;-70
2021/07/12 06:54:45;;;;;;;21.00;17.47;;;;;;;;;;747382;184;918955;-70
2021/07/12 06:57:08;;;;;;;18.60;15.97;;;;;;;;;;756476;182;918110;-72
2021/07/12 06:59:34;;;;;;;21.43;17.00;;;;;;;;;;752980;183;920555;-71
2021/07/12 07:02:00;;;;;;;19.00;14.70;;;;;;;;;;756541;184;919615;-72
2021/07/12 07:04:26;;;;;;;19.30;15.20;;;;;;;;;;752277;184;919316;-71
2021/07/12 07:06:52;;;;;;;14.57;13.00;;;;;;;;;;750915;184;918565;-70
2021/07/12 07:09:17;;;;;;;21.17;13.30;;;;;;;;;;757243;184;919829;-72
2021/07/12 07:11:43;;;;;;;18.83;13.60;;;;;;;;;;749143;184;995769;-72
2021/07/12 07:14:09;;;;;;;13.47;11.93;;;;;;;;;;756738;184;919413;-73
2021/07/12 07:16:35;;;;;;;13.10;11.07;;;;;;;;;;757887;184;919730;-73
2021/07/12 07:19:01;;;;;;;14.90;11.10;;;;;;;;;;749416;183;919680;-74
2021/07/12 07:21:27;;;;;;;12.90;10.93;;;;;;;;;;752599;184;919069;-73
2021/07/12 07:23:52;;;;;;;14.60;12.10;;;;;;;;;;747580;184;1021824;-73
2021/07/12 07:26:18;;;;;;;12.97;10.43;;;;;;;;;;759161;183;918666;-73
2021/07/12 07:28:44;;;;;;;11.10;10.00;;;;;;;;;;750592;183;919629;-74
2021/07/12 07:31:10;;;;;;;10.90;9.30;;;;;;;;;;754986;184;917505;-73
2021/07/12 07:33:36;;;;;;;11.47;10.30;;;;;;;;;;755077;184;917905;-74
2021/07/12 07:36:02;;;;;;;11.37;9.10;;;;;;;;;;755392;184;920315;-74
2021/07/12 07:38:28;;;;;;;10.90;9.90;;;;;;;;;;749744;184;920244;-74
2021/07/12 07:40:54;;;;;;;10.53;8.77;;;;;;;;;;753931;183;920583;-72
2021/07/12 07:43:19;;;;;;;10.00;8.67;;;;;;;;;;752962;184;1020690;-76
2021/07/12 07:45:45;;;;;;;10.13;9.10;;;;;;;;;;752559;184;918583;-77
2021/07/12 07:48:12;;;;;;;13.48;10.45;;;;;;;;;;754953;184;919340;-73
2021/07/12 07:50:39;;;;;;;11.27;9.90;;;;;;;;;;758993;181;916420;-73
2021/07/12 07:53:03;;;;;;;13.60;10.10;;;;;;;;;;750564;184;919386;-75
2021/07/12 07:55:29;;;;;;;11.03;9.73;;;;;;;;;;750098;184;919321;-74
2021/07/12 07:57:57;;;;;;;10.13;9.07;;;;;;;;;;757269;184;918881;-74
2021/07/12 08:00:21;;;;;;;10.57;8.53;;;;;;;;;;756677;184;919431;-74
2021/07/12 08:02:47;;;;;;;8.87;7.73;;;;;;;;;;751475;184;918911;-75
2021/07/12 08:05:12;;;;;;;7.72;6.65;;;;;;;;;;754470;184;918995;-74
2021/07/12 08:07:38;;;;;;;7.07;6.37;;;;;;;;;;752071;184;919422;-74
2021/07/12 08:10:04;;;;;;;7.77;6.87;;;;;;;;;;757685;183;918184;-73
2021/07/12 08:12:30;;;;;;;9.40;6.27;;;;;;;;;;757494;184;919286;-74
2021/07/12 08:14:56;;;;;;;6.60;6.00;;;;;;;;;;751253;184;923036;-72
2021/07/12 08:17:22;;;;;;;6.83;6.13;;;;;;;;;;760010;183;919700;-73
2021/07/12 08:19:48;;;;;;;7.10;5.90;;;;;;;;;;751120;184;919137;-73
2021/07/12 08:22:14;;;;;;;13.83;7.47;;;;;;;;;;759694;184;926367;-73
2021/07/12 08:24:39;;;;;;;9.03;6.27;;;;;;;;;;751494;184;1123141;-74
2021/07/12 08:27:05;;;;;;;8.00;5.00;;;;;;;;;;751740;184;919059;-73
2021/07/12 08:29:31;;;;;;;10.60;5.60;;;;;;;;;;755085;184;919105;-74
2021/07/12 08:31:57;;;;;;;6.53;5.90;;;;;;;;;;753744;184;920602;-74
2021/07/12 08:34:23;;;;;;;9.15;6.05;;;;;;;;;;750884;184;919713;-75
2021/07/12 08:36:50;;;;;;;12.30;6.27;;;;;;;;;;757000;184;919154;-75
2021/07/12 08:39:15;;;;;;;10.93;5.23;;;;;;;;;;752164;183;1021173;-76
2021/07/12 08:41:40;;;;;;;5.47;4.97;;;;;;;;;;752014;184;918971;-74
2021/07/12 08:44:06;;;;;;;5.97;5.40;;;;;;;;;;751235;184;971187;-73
2021/07/12 08:46:32;;;;;;;8.40;4.93;;;;;;;;;;760845;180;919409;-75
2021/07/12 08:48:58;;;;;;;8.90;4.50;;;;;;;;;;749424;184;922072;-73
2021/07/12 08:51:24;;;;;;;5.70;4.97;;;;;;;;;;748847;184;1016813;-72
2021/07/12 08:53:50;;;;;;;6.67;5.97;;;;;;;;;;757698;183;918455;-72
2021/07/12 08:56:15;;;;;;;6.77;4.87;;;;;;;;;;751449;184;964133;-75
2021/07/12 08:58:41;;;;;;;6.93;6.07;;;;;;;;;;746767;184;1021417;-72
2021/07/12 09:01:08;;;;;;;5.60;5.00;;;;;;;;;;754421;184;917113;-74
2021/07/12 09:03:33;;;;;;;6.45;5.43;;;;;;;;;;756034;184;921925;-75
2021/07/12 09:06:01;;;;;;;5.50;4.80;;;;;;;;;;748653;184;921355;-75
2021/07/12 09:08:33;;;;;;;6.70;5.60;;;;;;;;;;749722;184;919330;-73
2021/07/12 09:11:03;;;;;;;5.50;4.90;;;;;;;;;;753826;183;919412;-74
2021/07/12 09:13:35;;;;;;;6.97;6.00;;;;;;;;;;752946;184;917416;-72
2021/07/12 09:16:01;;;;;;;7.10;4.83;;;;;;;;;;754681;183;917200;-74
2021/07/12 09:18:27;;;;;;;7.07;4.77;;;;;;;;;;748615;184;920577;-74
2021/07/12 09:20:52;;;;;;;5.83;4.80;;;;;;;;;;754909;182;900814;-74
2021/07/12 09:23:18;;;;;;;5.17;4.60;;;;;;;;;;750234;183;914780;-74
2021/07/12 09:25:44;;;;;;;14.23;8.67;;;;;;;;;;752908;183;915280;-74
2021/07/12 09:28:10;;;;;;;5.47;4.60;;;;;;;;;;754344;185;916191;-73
2021/07/12 09:30:36;;;;;;;5.47;4.83;;;;;;;;;;752353;184;915692;-75
2021/07/12 09:33:02;;;;;;;7.70;4.90;;;;;;;;;;753809;184;919662;-73
2021/07/12 09:35:28;;;;;;;5.37;4.23;;;;;;;;;;755952;184;919311;-73
2021/07/12 09:37:55;;;;;;;5.62;4.45;;;;;;;;;;751223;184;919589;-74
2021/07/12 09:40:21;;;;;;;6.53;4.80;;;;;;;;;;753086;184;918750;-74
2021/07/12 09:42:47;;;;;;;8.23;5.53;;;;;;;;;;752691;184;918847;-74
2021/07/12 09:45:13;;;;;;;7.20;4.97;;;;;;;;;;762179;184;919622;-72
2021/07/12 09:47:39;;;;;;;5.60;5.10;;;;;;;;;;752541;184;1020666;-72
2021/07/12 09:50:08;;;;;;;6.00;5.40;;;;;;;;;;753318;184;934775;-73
2021/07/12 09:52:37;;;;;;;5.37;4.60;;;;;;;;;;751790;184;918869;-73
2021/07/12 09:55:03;;;;;;;4.93;4.20;;;;;;;;;;753020;184;919390;-76
2021/07/12 09:57:29;;;;;;;6.00;4.50;;;;;;;;;;751561;184;917668;-74
2021/07/12 09:59:54;;;;;;;5.73;4.80;;;;;;;;;;750086;183;919210;-75
2021/07/12 10:02:20;;;;;;;5.07;4.57;;;;;;;;;;751992;184;919016;-73
2021/07/12 10:04:46;;;;;;;4.93;3.77;;;;;;;;;;750801;184;816199;-74
2021/07/12 10:07:12;;;;;;;5.10;4.10;;;;;;;;;;754709;184;780839;-75
2021/07/12 10:09:38;;;;;;;5.67;3.97;;;;;;;;;;755613;184;629639;-74
2021/07/12 10:12:04;;;;;;;6.90;5.10;;;;;;;;;;756323;184;713625;-74
2021/07/12 10:14:30;;;;;;;5.93;4.20;;;;;;;;;;748673;184;1001092;-74
2021/07/12 10:16:55;;;;;;;6.40;4.77;;;;;;;;;;755207;184;919627;-74
2021/07/12 10:19:21;;;;;;;5.50;4.90;;;;;;;;;;748227;184;918592;-77
2021/07/12 10:21:47;;;;;;;4.93;4.23;;;;;;;;;;752038;184;918398;-76
2021/07/12 10:24:13;;;;;;;4.83;4.37;;;;;;;;;;749544;184;901340;-74
2021/07/12 10:26:40;;;;;;;4.50;4.10;;;;;;;;;;757705;183;919376;-74
2021/07/12 10:29:10;;;;;;;5.73;5.10;;;;;;;;;;751713;183;943304;-74
2021/07/12 10:31:36;;;;;;;8.57;5.33;;;;;;;;;;752648;183;918916;-74
2021/07/12 10:34:03;;;;;;;5.77;4.37;;;;;;;;;;756623;183;919428;-74
2021/07/12 10:36:35;;;;;;;5.63;4.97;;;;;;;;;;753134;184;814503;-73
2021/07/12 10:39:01;;;;;;;4.67;4.20;;;;;;;;;;753892;183;917935;-75
2021/07/12 10:41:28;;;;;;;5.80;5.20;;;;;;;;;;756786;184;633264;-73
2021/07/12 10:43:53;;;;;;;5.80;4.60;;;;;;;;;;756347;184;918569;-72
2021/07/12 10:46:39;;;;;;;8.47;5.03;;;;;;;;;;754749;183;919150;-73
2021/07/12 10:49:05;;;;;;;5.40;4.67;;;;;;;;;;754587;184;797823;-74
2021/07/12 10:51:47;;;;;;;5.90;5.10;;;;;;;;;;753268;184;629855;-73
2021/07/12 10:54:14;;;;;;;4.80;4.30;;;;;;;;;;756260;184;774046;-75
2021/07/12 10:56:43;;;;;;;6.03;5.03;;;;;;;;;;751922;183;918754;-75
2021/07/12 10:59:09;;;;;;;6.10;5.27;;;;;;;;;;753719;183;919369;-74
2021/07/12 11:01:35;;;;;;;6.93;4.83;;;;;;;;;;751637;182;918781;-78
2021/07/12 11:04:01;;;;;;;5.72;4.37;;;;;;;;;;749391;184;874752;-76
2021/07/12 11:06:27;;;;;;;5.63;4.60;;;;;;;;;;756208;184;1020738;-75
2021/07/12 11:08:54;;;;;;;7.43;4.60;;;;;;;;;;749832;184;918441;-75
2021/07/12 11:11:34;;;;;;;7.10;5.00;;;;;;;;;;751116;184;918091;-78
2021/07/12 11:14:05;;;;;;;5.30;4.80;;;;;;;;;;749777;184;817151;-78
2021/07/12 11:16:35;;;;;;;6.73;5.03;;;;;;;;;;751724;184;1020873;-76
2021/07/12 11:19:01;;;;;;;5.63;5.13;;;;;;;;;;763614;182;786867;-76
2021/07/12 11:21:27;;;;;;;6.13;5.47;;;;;;;;;;747328;184;919608;-72
2021/07/12 11:23:53;;;;;;;6.30;5.27;;;;;;;;;;746827;184;919261;-76
2021/07/12 11:26:34;;;;;;;6.80;4.17;;;;;;;;;;755447;184;918147;-81
2021/07/12 11:29:00;;;;;;;7.60;5.07;;;;;;;;;;754077;184;918281;-74
2021/07/12 11:31:32;;;;;;;6.10;5.07;;;;;;;;;;748714;184;918251;-75
2021/07/12 11:33:57;;;;;;;4.90;4.10;;;;;;;;;;748861;184;919423;-73
2021/07/12 11:36:23;;;;;;;5.50;4.63;;;;;;;;;;748389;184;998367;-75
2021/07/12 11:38:49;;;;;;;4.60;4.10;;;;;;;;;;758361;184;919658;-74
2021/07/12 11:41:15;;;;;;;5.87;4.83;;;;;;;;;;754505;183;870115;-73
2021/07/12 11:43:41;;;;;;;7.40;5.03;;;;;;;;;;756329;183;816059;-71
2021/07/12 11:46:07;;;;;;;6.13;4.83;;;;;;;;;;757503;183;918795;-73
2021/07/12 11:48:33;;;;;;;6.20;4.47;;;;;;;;;;751511;184;919942;-73
2021/07/12 11:50:58;;;;;;;6.20;4.57;;;;;;;;;;756226;184;918147;-74
2021/07/12 11:53:24;;;;;;;7.70;4.93;;;;;;;;;;756790;184;918160;-74
2021/07/12 11:55:50;;;;;;;5.90;4.40;;;;;;;;;;748403;184;919268;-72
2021/07/12 11:58:16;;;;;;;5.73;5.23;;;;;;;;;;750477;184;919833;-72
2021/07/12 12:00:42;;;;;;;6.67;5.97;;;;;;;;;;753050;184;919225;-71
2021/07/12 12:03:08;;;;;;;5.57;4.87;;;;;;;;;;754745;183;920962;-74
2021/07/12 12:05:34;;;;;;;5.70;4.20;;;;;;;;;;747235;184;919831;-71
2021/07/12 12:08:01;;;;;;;6.07;5.07;;;;;;;;;;750447;184;1018981;-75
2021/07/12 12:10:26;;;;;;;6.63;4.90;;;;;;;;;;760307;183;631173;-74
2021/07/12 12:12:53;;;;;;;9.03;5.10;;;;;;;;;;751950;184;816418;-72
2021/07/12 12:15:19;;;;;;;5.57;4.70;;;;;;;;;;753454;184;712783;-75
2021/07/12 12:17:45;;;;;;;5.03;4.33;;;;;;;;;;755095;184;816744;-75
2021/07/12 12:20:12;;;;;;;4.97;4.47;;;;;;;;;;757634;184;901170;-76
2021/07/12 12:22:37;;;;;;;7.23;5.03;;;;;;;;;;752698;184;916714;-74
2021/07/12 12:25:03;;;;;;;6.90;5.67;;;;;;;;;;752491;184;916273;-74
2021/07/12 12:27:29;;;;;;;6.00;5.37;;;;;;;;;;761247;180;915632;-75
2021/07/12 12:29:55;;;;;;;5.57;4.97;;;;;;;;;;749146;184;915009;-73
2021/07/12 12:32:27;;;;;;;5.27;4.73;;;;;;;;;;747980;184;919301;-70
2021/07/12 12:34:53;;;;;;;7.77;4.80;;;;;;;;;;753485;184;914839;-75
2021/07/12 12:37:19;;;;;;;6.80;4.93;;;;;;;;;;757019;184;919122;-74
2021/07/12 12:39:45;;;;;;;7.77;5.47;;;;;;;;;;750565;184;919135;-75
2021/07/12 12:42:10;;;;;;;5.67;5.13;;;;;;;;;;753319;184;816559;-72
2021/07/12 12:44:37;;;;;;;4.97;4.37;;;;;;;;;;757072;183;816562;-70
2021/07/12 12:47:02;;;;;;;6.47;5.67;;;;;;;;;;756141;183;885581;-73
2021/07/12 12:49:37;;;;;;;5.30;4.70;;;;;;;;;;751345;184;916922;-73
2021/07/12 12:52:04;;;;;;;5.30;4.80;;;;;;;;;;756140;184;816687;-72
2021/07/12 12:54:28;;;;;;;4.70;3.93;;;;;;;;;;747225;183;919602;-72
2021/07/12 12:56:54;;;;;;;5.93;4.77;;;;;;;;;;752104;183;919459;-76
2021/07/12 12:59:35;;;;;;;7.23;5.00;;;;;;;;;;752359;184;816608;-72
2021/07/12 13:02:04;;;;;;;5.63;5.03;;;;;;;;;;751879;183;919484;-72
2021/07/12 13:04:36;;;;;;;5.23;4.40;;;;;;;;;;754795;184;914787;-72
2021/07/12 13:07:02;;;;;;;5.00;4.30;;;;;;;;;;752807;183;1021487;-74
2021/07/12 13:09:27;;;;;;;5.00;4.50;;;;;;;;;;753733;184;918103;-75
2021/07/12 13:11:59;;;;;;;5.33;4.77;;;;;;;;;;757621;184;819373;-73
2021/07/12 13:14:28;;;;;;;4.80;4.30;;;;;;;;;;754714;184;816846;-73
2021/07/12 13:16:54;;;;;;;5.30;4.80;;;;;;;;;;752611;184;987423;-73
2021/07/12 13:19:20;;;;;;;5.70;4.78;;;;;;;;;;752756;184;1021368;-73
2021/07/12 13:21:48;;;;;;;5.03;4.53;;;;;;;;;;753476;184;1123789;-72
2021/07/12 13:24:14;;;;;;;5.50;4.80;;;;;;;;;;757926;184;1037168;-72
2021/07/12 13:26:40;;;;;;;5.70;4.40;;;;;;;;;;752848;184;1227642;-73
2021/07/12 13:29:06;;;;;;;5.80;4.80;;;;;;;;;;753038;184;919162;-74
2021/07/12 13:31:31;;;;;;;9.63;5.97;;;;;;;;;;754859;183;918294;-73
2021/07/12 13:33:57;;;;;;;5.67;4.90;;;;;;;;;;752974;183;918506;-73
2021/07/12 13:36:23;;;;;;;5.27;4.77;;;;;;;;;;748428;184;918837;-72
2021/07/12 13:38:49;;;;;;;5.73;5.17;;;;;;;;;;754043;184;919043;-73
2021/07/12 13:41:15;;;;;;;4.73;4.23;;;;;;;;;;753455;184;918251;-73
2021/07/12 13:43:41;;;;;;;9.30;5.60;;;;;;;;;;754164;183;920218;-74
2021/07/12 13:46:07;;;;;;;4.47;4.07;;;;;;;;;;754082;184;921989;-73
2021/07/12 13:48:32;;;;;;;15.97;5.10;;;;;;;;;;753931;184;918775;-70
2021/07/12 13:50:58;;;;;;;4.00;3.60;;;;;;;;;;749212;183;919336;-73
2021/07/12 13:53:24;;;;;;;5.67;3.93;;;;;;;;;;755623;184;914857;-73
2021/07/12 13:55:50;;;;;;;8.73;4.50;;;;;;;;;;755055;184;916219;-74
2021/07/12 13:58:16;;;;;;;5.53;4.80;;;;;;;;;;750104;184;920797;-75
2021/07/12 14:00:42;;;;;;;5.47;4.80;;;;;;;;;;755065;184;713453;-75
2021/07/12 14:03:07;;;;;;;4.60;4.10;;;;;;;;;;756284;184;912408;-74
2021/07/12 14:05:33;;;;;;;5.77;4.93;;;;;;;;;;751042;184;916440;-74
2021/07/12 14:07:59;;;;;;;5.28;4.72;;;;;;;;;;749599;183;915815;-74
2021/07/12 14:10:25;;;;;;;4.53;4.07;;;;;;;;;;759657;184;916434;-75